F/V Roger Christian3 — FUFL — position and weather

sailwx.info

Track history (hours):
 
Tides and Currents Weather Stations Pressure Air Temp Water Temp Dewpoint Dewpoint Depression Visibility Wind Speed Wind Dir Waves Ship Positions

F/V Roger Christian3

Last reported at 2014-Aug-27 20:27 UTC. Time now 2014-Aug-27 21:18 UTC.
Position N 43°24' E 003°42'.

Length 24 m.

Type: Fishing. MMSI: 228173800.

Date/timePositionNaut miles runAvg speedWind from/ knotsBaromVisibWave heightAir tempDewpointWater temp
2014-Aug-27 20:27N 43°24' E 003°42'0 0.0
2014-Aug-27 15:27N 43°24' E 003°42'14 7.0
2014-Aug-27 13:27N 43°11' E 003°50'10 5.1
2014-Aug-27 11:29N 43°02' E 003°55'5 4.8
2014-Aug-27 10:31N 42°58' E 003°58'3 2.8
2014-Aug-27 09:31N 42°56' E 004°01'10 4.6
2014-Aug-27 07:23N 42°54' E 004°15'4 4.3
2014-Aug-27 06:32N 42°55' E 004°19'4 3.7
2014-Aug-27 05:22N 42°59' E 004°17'10 4.5
2014-Aug-27 03:04N 43°05' E 004°05'1610.5
2014-Aug-27 01:31N 43°17' E 003°49'9 1.1
2014-Aug-26 17:29N 43°24' E 003°42'0 0.0
2014-Aug-26 16:27N 43°24' E 003°42'0 0.2
2014-Aug-26 15:31N 43°24' E 003°42'3 3.6
2014-Aug-26 14:33N 43°22' E 003°46'1111.2
2014-Aug-26 13:32N 43°16' E 003°59'4 3.9
2014-Aug-26 12:32N 43°14' E 004°04'5 4.8
2014-Aug-26 11:25N 43°11' E 004°10'5 4.9
2014-Aug-26 10:27N 43°08' E 004°15'11 3.4
2014-Aug-26 07:23N 42°60' E 004°23'1 1.1
2014-Aug-26 06:12N 42°58' E 004°23'5 4.6
2014-Aug-26 05:09N 43°01' E 004°18'4 4.4
2014-Aug-26 04:18N 43°04' E 004°14'31 3.1
2014-Aug-25 18:26N 43°24' E 003°42'0 0.0
2014-Aug-25 10:11N 43°24' E 003°42'0 0.0
2014-Aug-25 09:23N 43°24' E 003°42'0 0.0
2014-Aug-24 23:28N 43°24' E 003°42'0 0.0
2014-Aug-24 14:29N 43°24' E 003°42'0 0.0
2014-Aug-24 12:29N 43°24' E 003°42'0 0.0
2014-Aug-24 11:26N 43°24' E 003°42'0 0.0
2014-Aug-24 09:28N 43°24' E 003°42'0 0.0
2014-Aug-24 08:26N 43°24' E 003°42'0 0.0
2014-Aug-24 07:32N 43°24' E 003°42'0 0.0
2014-Aug-24 06:33N 43°24' E 003°42'0 0.0
2014-Aug-24 04:12N 43°24' E 003°42'0 0.0
2014-Aug-24 01:29N 43°24' E 003°42'0 0.0
2014-Aug-23 23:33N 43°24' E 003°42'0 0.0
2014-Aug-23 22:32N 43°24' E 003°42'0 0.0
2014-Aug-23 21:22N 43°24' E 003°42'0 0.0
2014-Aug-23 19:26N 43°24' E 003°42'0 0.0
2014-Aug-23 03:31N 43°24' E 003°42'0 0.0
2014-Aug-23 02:32N 43°24' E 003°42'0 0.0
2014-Aug-23 01:33N 43°24' E 003°42'0 0.0
2014-Aug-23 00:32N 43°24' E 003°42'0 0.0
2014-Aug-22 23:33N 43°24' E 003°42'0 0.0
2014-Aug-22 22:23N 43°24' E 003°42'0 0.0
2014-Aug-22 21:20N 43°24' E 003°42'0 0.0
2014-Aug-22 20:34N 43°24' E 003°42'0 0.0
2014-Aug-22 19:21N 43°24' E 003°42'0 0.0
2014-Aug-22 18:22N 43°24' E 003°42'0 0.0
2014-Aug-22 17:17N 43°24' E 003°42'0 0.0
2014-Aug-22 16:30N 43°24' E 003°42'0 0.3
2014-Aug-22 15:33N 43°24' E 003°42'0 0.4
2014-Aug-22 14:33N 43°24' E 003°42'10 9.2
2014-Aug-22 13:28N 43°16' E 003°51'4 4.2
2014-Aug-22 12:33N 43°13' E 003°54'5 4.6
2014-Aug-22 11:32N 43°10' E 003°59'4 4.5
2014-Aug-22 10:33N 43°07' E 004°03'13 4.1
2014-Aug-22 07:23N 42°59' E 004°17'3 3.6
2014-Aug-22 06:29N 42°57' E 004°20'4 3.6
2014-Aug-22 05:26N 43°00' E 004°19'4 4.5
2014-Aug-22 04:31N 43°03' E 004°15'4 4.4
2014-Aug-22 03:33N 43°06' E 004°10'8 7.4
2014-Aug-22 02:30N 43°10' E 004°01'1111.1
2014-Aug-22 01:33N 43°18' E 003°51'9 8.5
2014-Aug-22 00:28N 43°24' E 003°42'0 0.0
2014-Aug-21 22:14N 43°24' E 003°42'0 0.0
2014-Aug-21 21:26N 43°24' E 003°42'0 0.0
2014-Aug-21 20:17N 43°24' E 003°42'0 0.0
2014-Aug-21 18:33N 43°24' E 003°42'0 0.0
2014-Aug-21 16:20N 43°24' E 003°42'0 0.0
2014-Aug-21 15:32N 43°24' E 003°42'1 0.7
2014-Aug-21 14:32N 43°23' E 003°42'1010.0
2014-Aug-21 13:33N 43°19' E 003°54'4 4.3
2014-Aug-21 12:33N 43°17' E 003°60'4 4.5
2014-Aug-21 11:33N 43°14' E 004°05'5 4.6
2014-Aug-21 10:30N 43°11' E 004°10'13 3.9
2014-Aug-21 07:07N 43°01' E 004°22'2 3.2
2014-Aug-21 06:32N 42°60' E 004°23'3 3.5
2014-Aug-21 05:33N 43°02' E 004°20'5 4.5
2014-Aug-21 04:31N 43°05' E 004°15'4 4.5
2014-Aug-21 03:31N 43°07' E 004°09'6 6.5
2014-Aug-21 02:33N 43°10' E 004°02'1110.6
2014-Aug-21 01:34N 43°17' E 003°51'10 2.8
2014-Aug-20 22:05N 43°24' E 003°42'0 0.0
2014-Aug-20 21:32N 43°24' E 003°42'0 0.0
2014-Aug-20 20:33N 43°24' E 003°42'0 0.0
2014-Aug-20 19:23N 43°24' E 003°42'0 0.0
2014-Aug-20 18:25N 43°24' E 003°42'0 0.1
2014-Aug-20 15:32N 43°24' E 003°42'3 2.8
2014-Aug-20 14:31N 43°23' E 003°45'8 8.6
2014-Aug-20 13:33N 43°19' E 003°55'4 4.1
2014-Aug-20 12:32N 43°17' E 004°01'5 4.6
2014-Aug-20 11:30N 43°14' E 004°06'5 4.6
2014-Aug-20 10:29N 43°11' E 004°11'3 3.4
2014-Aug-20 09:33N 43°09' E 004°14'5 4.1
2014-Aug-20 08:20N 43°05' E 004°18'3 4.3
2014-Aug-20 07:32N 43°02' E 004°20'4 4.1
2014-Aug-20 06:26N 42°57' E 004°22'3 3.4
2014-Aug-20 05:31N 42°60' E 004°19'4 4.6
2014-Aug-20 04:33N 43°02' E 004°14'4 4.5
2014-Aug-20 03:33N 43°05' E 004°09'8 7.2
2014-Aug-20 02:30N 43°09' E 004°01'1111.3
2014-Aug-20 01:31N 43°17' E 003°50'9 6.8
2014-Aug-20 00:13N 43°24' E 003°42'0 0.0
2014-Aug-19 23:30N 43°24' E 003°42'0 0.0
2014-Aug-19 22:33N 43°24' E 003°42'0 0.0
2014-Aug-19 21:11N 43°24' E 003°42'0 0.0
2014-Aug-19 20:30N 43°24' E 003°42'0 0.0
2014-Aug-19 19:25N 43°24' E 003°42'0 0.0
2014-Aug-19 18:30N 43°24' E 003°42'0 0.0
2014-Aug-19 17:13N 43°24' E 003°42'0 0.2
2014-Aug-19 16:33N 43°24' E 003°42'0 0.0
2014-Aug-19 15:29N 43°24' E 003°42'8 7.6
2014-Aug-19 14:28N 43°17' E 003°47'8 8.7
2014-Aug-19 13:33N 43°11' E 003°53'5 4.4
2014-Aug-19 12:27N 43°07' E 003°57'4 4.4
2014-Aug-19 11:33N 43°04' E 004°01'4 4.1
2014-Aug-19 10:32N 43°02' E 004°06'2 2.4
2014-Aug-19 09:33N 43°01' E 004°09'4 4.5
2014-Aug-19 08:33N 42°60' E 004°15'5 4.6
2014-Aug-19 07:32N 43°01' E 004°21'4 3.3
2014-Aug-19 06:22N 43°03' E 004°25'4 4.1
2014-Aug-19 05:19N 43°02' E 004°19'4 4.7
2014-Aug-19 04:32N 43°02' E 004°15'5 4.7
2014-Aug-19 03:30N 43°04' E 004°08'8 7.7
2014-Aug-19 02:30N 43°10' E 004°01'1111.4
2014-Aug-19 01:30N 43°18' E 003°50'8 2.1
2014-Aug-18 21:31N 43°24' E 003°42'0 0.0
2014-Aug-18 20:15N 43°24' E 003°42'19 2.1
2014-Aug-18 11:32N 43°09' E 003°56'4 4.4
2014-Aug-18 10:32N 43°05' E 003°59'6 4.2
2014-Aug-18 09:04N 43°03' E 004°07'2 4.5
2014-Aug-18 08:33N 43°03' E 004°10'9 4.1
2014-Aug-18 06:12N 42°57' E 004°21'3 4.3
2014-Aug-18 05:33N 42°59' E 004°19'5 4.5
2014-Aug-18 04:33N 43°02' E 004°14'5 4.6
2014-Aug-18 03:29N 43°05' E 004°09'7 7.7
2014-Aug-18 02:31N 43°10' E 004°01'1111.3
2014-Aug-18 01:31N 43°18' E 003°50'  
Track history (hours):
 
Tides and Currents Weather Stations Pressure Air Temp Water Temp Dewpoint Dewpoint Depression Visibility Wind Speed Wind Dir Waves Ship Positions

F/V Roger Christian3

Last reported at 2014-Aug-27 20:27 UTC. Time now 2014-Aug-27 21:18 UTC.
Position N 43°24' E 003°42'.

Length 24 m.

Type: Fishing. MMSI: 228173800.

Date/timePositionNaut miles runAvg speedWind from/ knotsBaromVisibWave heightAir tempDewpointWater temp
2014-Aug-27 20:27N 43°24' E 003°42'0 0.0
2014-Aug-27 15:27N 43°24' E 003°42'14 7.0
2014-Aug-27 13:27N 43°11' E 003°50'10 5.1
2014-Aug-27 11:29N 43°02' E 003°55'5 4.8
2014-Aug-27 10:31N 42°58' E 003°58'3 2.8
2014-Aug-27 09:31N 42°56' E 004°01'10 4.6
2014-Aug-27 07:23N 42°54' E 004°15'4 4.3
2014-Aug-27 06:32N 42°55' E 004°19'4 3.7
2014-Aug-27 05:22N 42°59' E 004°17'10 4.5
2014-Aug-27 03:04N 43°05' E 004°05'1610.5
2014-Aug-27 01:31N 43°17' E 003°49'9 1.1
2014-Aug-26 17:29N 43°24' E 003°42'0 0.0
2014-Aug-26 16:27N 43°24' E 003°42'0 0.2
2014-Aug-26 15:31N 43°24' E 003°42'3 3.6
2014-Aug-26 14:33N 43°22' E 003°46'1111.2
2014-Aug-26 13:32N 43°16' E 003°59'4 3.9
2014-Aug-26 12:32N 43°14' E 004°04'5 4.8
2014-Aug-26 11:25N 43°11' E 004°10'5 4.9
2014-Aug-26 10:27N 43°08' E 004°15'11 3.4
2014-Aug-26 07:23N 42°60' E 004°23'1 1.1
2014-Aug-26 06:12N 42°58' E 004°23'5 4.6
2014-Aug-26 05:09N 43°01' E 004°18'4 4.4
2014-Aug-26 04:18N 43°04' E 004°14'31 3.1
2014-Aug-25 18:26N 43°24' E 003°42'0 0.0
2014-Aug-25 10:11N 43°24' E 003°42'0 0.0
2014-Aug-25 09:23N 43°24' E 003°42'0 0.0
2014-Aug-24 23:28N 43°24' E 003°42'0 0.0
2014-Aug-24 14:29N 43°24' E 003°42'0 0.0
2014-Aug-24 12:29N 43°24' E 003°42'0 0.0
2014-Aug-24 11:26N 43°24' E 003°42'0 0.0
2014-Aug-24 09:28N 43°24' E 003°42'0 0.0
2014-Aug-24 08:26N 43°24' E 003°42'0 0.0
2014-Aug-24 07:32N 43°24' E 003°42'0 0.0
2014-Aug-24 06:33N 43°24' E 003°42'0 0.0
2014-Aug-24 04:12N 43°24' E 003°42'0 0.0
2014-Aug-24 01:29N 43°24' E 003°42'0 0.0
2014-Aug-23 23:33N 43°24' E 003°42'0 0.0
2014-Aug-23 22:32N 43°24' E 003°42'0 0.0
2014-Aug-23 21:22N 43°24' E 003°42'0 0.0
2014-Aug-23 19:26N 43°24' E 003°42'0 0.0
2014-Aug-23 03:31N 43°24' E 003°42'0 0.0
2014-Aug-23 02:32N 43°24' E 003°42'0 0.0
2014-Aug-23 01:33N 43°24' E 003°42'0 0.0
2014-Aug-23 00:32N 43°24' E 003°42'0 0.0
2014-Aug-22 23:33N 43°24' E 003°42'0 0.0
2014-Aug-22 22:23N 43°24' E 003°42'0 0.0
2014-Aug-22 21:20N 43°24' E 003°42'0 0.0
2014-Aug-22 20:34N 43°24' E 003°42'0 0.0
2014-Aug-22 19:21N 43°24' E 003°42'0 0.0
2014-Aug-22 18:22N 43°24' E 003°42'0 0.0
2014-Aug-22 17:17N 43°24' E 003°42'0 0.0
2014-Aug-22 16:30N 43°24' E 003°42'0 0.3
2014-Aug-22 15:33N 43°24' E 003°42'0 0.4
2014-Aug-22 14:33N 43°24' E 003°42'10 9.2
2014-Aug-22 13:28N 43°16' E 003°51'4 4.2
2014-Aug-22 12:33N 43°13' E 003°54'5 4.6
2014-Aug-22 11:32N 43°10' E 003°59'4 4.5
2014-Aug-22 10:33N 43°07' E 004°03'13 4.1
2014-Aug-22 07:23N 42°59' E 004°17'3 3.6
2014-Aug-22 06:29N 42°57' E 004°20'4 3.6
2014-Aug-22 05:26N 43°00' E 004°19'4 4.5
2014-Aug-22 04:31N 43°03' E 004°15'4 4.4
2014-Aug-22 03:33N 43°06' E 004°10'8 7.4
2014-Aug-22 02:30N 43°10' E 004°01'1111.1
2014-Aug-22 01:33N 43°18' E 003°51'9 8.5
2014-Aug-22 00:28N 43°24' E 003°42'0 0.0
2014-Aug-21 22:14N 43°24' E 003°42'0 0.0
2014-Aug-21 21:26N 43°24' E 003°42'0 0.0
2014-Aug-21 20:17N 43°24' E 003°42'0 0.0
2014-Aug-21 18:33N 43°24' E 003°42'0 0.0
2014-Aug-21 16:20N 43°24' E 003°42'0 0.0
2014-Aug-21 15:32N 43°24' E 003°42'1 0.7
2014-Aug-21 14:32N 43°23' E 003°42'1010.0
2014-Aug-21 13:33N 43°19' E 003°54'4 4.3
2014-Aug-21 12:33N 43°17' E 003°60'4 4.5
2014-Aug-21 11:33N 43°14' E 004°05'5 4.6
2014-Aug-21 10:30N 43°11' E 004°10'13 3.9
2014-Aug-21 07:07N 43°01' E 004°22'2 3.2
2014-Aug-21 06:32N 42°60' E 004°23'3 3.5
2014-Aug-21 05:33N 43°02' E 004°20'5 4.5
2014-Aug-21 04:31N 43°05' E 004°15'4 4.5
2014-Aug-21 03:31N 43°07' E 004°09'6 6.5
2014-Aug-21 02:33N 43°10' E 004°02'1110.6
2014-Aug-21 01:34N 43°17' E 003°51'10 2.8
2014-Aug-20 22:05N 43°24' E 003°42'0 0.0
2014-Aug-20 21:32N 43°24' E 003°42'0 0.0
2014-Aug-20 20:33N 43°24' E 003°42'0 0.0
2014-Aug-20 19:23N 43°24' E 003°42'0 0.0
2014-Aug-20 18:25N 43°24' E 003°42'0 0.1
2014-Aug-20 15:32N 43°24' E 003°42'3 2.8
2014-Aug-20 14:31N 43°23' E 003°45'8 8.6
2014-Aug-20 13:33N 43°19' E 003°55'4 4.1
2014-Aug-20 12:32N 43°17' E 004°01'5 4.6
2014-Aug-20 11:30N 43°14' E 004°06'5 4.6
2014-Aug-20 10:29N 43°11' E 004°11'3 3.4
2014-Aug-20 09:33N 43°09' E 004°14'5 4.1
2014-Aug-20 08:20N 43°05' E 004°18'3 4.3
2014-Aug-20 07:32N 43°02' E 004°20'4 4.1
2014-Aug-20 06:26N 42°57' E 004°22'3 3.4
2014-Aug-20 05:31N 42°60' E 004°19'4 4.6
2014-Aug-20 04:33N 43°02' E 004°14'4 4.5
2014-Aug-20 03:33N 43°05' E 004°09'8 7.2
2014-Aug-20 02:30N 43°09' E 004°01'1111.3
2014-Aug-20 01:31N 43°17' E 003°50'9 6.8
2014-Aug-20 00:13N 43°24' E 003°42'0 0.0
2014-Aug-19 23:30N 43°24' E 003°42'0 0.0
2014-Aug-19 22:33N 43°24' E 003°42'0 0.0
2014-Aug-19 21:11N 43°24' E 003°42'0 0.0
2014-Aug-19 20:30N 43°24' E 003°42'0 0.0
2014-Aug-19 19:25N 43°24' E 003°42'0 0.0
2014-Aug-19 18:30N 43°24' E 003°42'0 0.0
2014-Aug-19 17:13N 43°24' E 003°42'0 0.2
2014-Aug-19 16:33N 43°24' E 003°42'0 0.0
2014-Aug-19 15:29N 43°24' E 003°42'8 7.6
2014-Aug-19 14:28N 43°17' E 003°47'8 8.7
2014-Aug-19 13:33N 43°11' E 003°53'5 4.4
2014-Aug-19 12:27N 43°07' E 003°57'4 4.4
2014-Aug-19 11:33N 43°04' E 004°01'4 4.1
2014-Aug-19 10:32N 43°02' E 004°06'2 2.4
2014-Aug-19 09:33N 43°01' E 004°09'4 4.5
2014-Aug-19 08:33N 42°60' E 004°15'5 4.6
2014-Aug-19 07:32N 43°01' E 004°21'4 3.3
2014-Aug-19 06:22N 43°03' E 004°25'4 4.1
2014-Aug-19 05:19N 43°02' E 004°19'4 4.7
2014-Aug-19 04:32N 43°02' E 004°15'5 4.7
2014-Aug-19 03:30N 43°04' E 004°08'8 7.7
2014-Aug-19 02:30N 43°10' E 004°01'1111.4
2014-Aug-19 01:30N 43°18' E 003°50'8 2.1
2014-Aug-18 21:31N 43°24' E 003°42'0 0.0
2014-Aug-18 20:15N 43°24' E 003°42'19 2.1
2014-Aug-18 11:32N 43°09' E 003°56'4 4.4
2014-Aug-18 10:32N 43°05' E 003°59'6 4.2
2014-Aug-18 09:04N 43°03' E 004°07'2 4.5
2014-Aug-18 08:33N 43°03' E 004°10'9 4.1
2014-Aug-18 06:12N 42°57' E 004°21'3 4.3
2014-Aug-18 05:33N 42°59' E 004°19'5 4.5
2014-Aug-18 04:33N 43°02' E 004°14'5 4.6
2014-Aug-18 03:29N 43°05' E 004°09'7 7.7
2014-Aug-18 02:31N 43°10' E 004°01'1111.3
2014-Aug-18 01:31N 43°18' E 003°50'  

Dump ship's entire track history